Heteren, Netherlands
Current Conditions -  °F | °C
As of 3:25 AM on Saturday 25 Oct 2014 (Local Time) from EHDL Reporting Station
Haze Haze  
Wind Chill: 52°   Ceiling: 200
Heat Index: 52°   Visibility: 1.4mi
Dew Point: 52°   Wind: 9mph
Humidity: 100%   Direction: 200°SSW
Pressure: 29.97"   Gusts: NA
Location:  51.96°N, 5.76°E
Report Text: EHDL 250125Z AUTO 20008KT 2300 BR BKN002 OVC003 11/11 Q1015 AMB
Loading
Personal Weather Stations






























Interactive Weather Map
Tropical Storm Tracking
New forecast layout! Learn more

10-Day Weather Forecast

Advertisements
Track Severe Weather on mobile